Time;durP1;ratioP1;P1;durP2;ratioP2;P2;SDS_P1;SDS_P2;PMS_P1;PMS_P2;Temp;Humidity;BMP_temperature;BMP_pressure;BME280_temperature;BME280_humidity;BME280_pressure;Samples;Min_cycle;Max_cycle;Signal;HPM_P1;HPM_P2
2023/01/22 00:00:33;;;;;;;17.35;10.65;;;-0.60;99.90;;;;;;5035851;28;20395;-85
2023/01/22 00:02:58;;;;;;;19.65;10.52;;;-0.50;99.90;;;;;;5038722;28;20037;-85
2023/01/22 00:05:24;;;;;;;17.52;10.10;;;-0.60;99.90;;;;;;5016454;28;20041;-85
2023/01/22 00:07:49;;;;;;;18.88;10.52;;;-0.60;99.90;;;;;;5019183;28;20040;-85
2023/01/22 00:10:15;;;;;;;18.50;11.27;;;-0.60;99.90;;;;;;5021939;28;20128;-85
2023/01/22 00:12:41;;;;;;;18.52;10.20;;;-0.60;99.90;;;;;;5037507;28;20387;-85
2023/01/22 00:15:07;;;;;;;17.02;10.05;;;-0.60;99.90;;;;;;5017044;28;20107;-85
2023/01/22 00:17:33;;;;;;;20.98;11.07;;;-0.60;99.90;;;;;;5034732;28;20396;-85
2023/01/22 00:19:58;;;;;;;16.30;9.98;;;-0.60;99.90;;;;;;5021687;28;20033;-85
2023/01/22 00:22:24;;;;;;;19.02;10.80;;;-0.60;99.90;;;;;;5035791;28;20034;-85
2023/01/22 00:24:49;;;;;;;17.73;10.07;;;-0.60;99.90;;;;;;5018980;28;20045;-85
2023/01/22 00:27:15;;;;;;;19.70;10.32;;;-0.60;99.90;;;;;;5040064;28;20036;-85
2023/01/22 00:29:41;;;;;;;19.77;9.77;;;-0.50;99.90;;;;;;5020990;28;20041;-85
2023/01/22 00:32:06;;;;;;;17.73;7.75;;;-0.50;99.90;;;;;;5036472;28;20095;-85
2023/01/22 00:34:32;;;;;;;23.02;10.43;;;-0.40;99.90;;;;;;5017863;28;20245;-85
2023/01/22 00:36:57;;;;;;;11.48;6.03;;;-0.40;99.90;;;;;;5031329;28;20447;-85
2023/01/22 00:39:23;;;;;;;18.38;9.40;;;-0.30;99.90;;;;;;5016421;28;20033;-85
2023/01/22 00:41:48;;;;;;;20.95;9.88;;;-0.20;99.90;;;;;;5028985;28;20037;-85
2023/01/22 00:44:14;;;;;;;17.45;9.38;;;-0.20;99.90;;;;;;5015706;28;20099;-85
2023/01/22 00:46:40;;;;;;;10.18;5.22;;;-0.10;99.90;;;;;;5026455;28;20049;-85
2023/01/22 00:49:06;;;;;;;16.02;9.23;;;0.00;99.90;;;;;;5017282;28;20077;-85
2023/01/22 00:51:32;;;;;;;18.15;9.07;;;0.10;99.90;;;;;;5024138;28;20040;-85
2023/01/22 00:53:58;;;;;;;18.58;9.40;;;0.10;99.90;;;;;;5033652;28;20049;-85
2023/01/22 00:56:23;;;;;;;18.88;9.55;;;0.00;99.90;;;;;;5033850;28;20045;-84
2023/01/22 00:58:49;;;;;;;21.58;10.20;;;0.00;99.90;;;;;;5024524;28;20056;-85
2023/01/22 01:01:15;;;;;;;17.98;9.52;;;0.00;99.90;;;;;;5022848;28;20374;-85
2023/01/22 01:03:41;;;;;;;18.77;10.13;;;0.00;99.90;;;;;;5031726;28;20037;-85
2023/01/22 01:06:14;;;;;;;12.13;6.13;;;-0.10;99.90;;;;;;5012505;28;20036;-85
2023/01/22 01:08:41;;;;;;;18.05;8.95;;;-0.10;99.90;;;;;;5016481;28;20064;-85
2023/01/22 01:11:14;;;;;;;20.58;10.40;;;0.00;99.90;;;;;;5032783;28;20083;-85
2023/01/22 01:13:41;;;;;;;23.10;10.88;;;0.00;99.90;;;;;;5033000;28;20048;-85
2023/01/22 01:16:26;;;;;;;24.08;10.15;;;0.00;99.90;;;;;;5017832;28;20079;-85
2023/01/22 01:18:52;;;;;;;21.70;9.60;;;0.00;99.90;;;;;;5033334;28;20102;-85
2023/01/22 01:21:18;;;;;;;21.60;10.63;;;0.00;99.90;;;;;;5017442;28;20037;-84
2023/01/22 01:23:44;;;;;;;23.17;10.25;;;0.10;99.90;;;;;;5017158;28;20049;-85
2023/01/22 01:26:12;;;;;;;23.60;10.68;;;0.20;99.90;;;;;;5016561;28;20413;-85
2023/01/22 01:28:40;;;;;;;23.52;11.25;;;0.20;99.90;;;;;;5037039;28;20472;-85
2023/01/22 01:31:08;;;;;;;22.58;10.55;;;0.20;99.90;;;;;;5031958;28;20069;-85
2023/01/22 01:33:34;;;;;;;23.60;11.70;;;0.30;99.90;;;;;;5031311;28;20447;-84
2023/01/22 01:36:02;;;;;;;20.70;10.98;;;0.30;99.90;;;;;;5018935;28;20037;-84
2023/01/22 01:38:28;;;;;;;23.73;11.85;;;0.40;99.90;;;;;;5033704;28;20060;-84
2023/01/22 01:40:53;;;;;;;24.05;12.05;;;0.30;99.90;;;;;;5032997;28;20366;-85
2023/01/22 01:43:19;;;;;;;25.92;11.77;;;0.40;99.90;;;;;;5032732;28;20099;-85
2023/01/22 01:45:45;;;;;;;22.80;11.90;;;0.40;99.90;;;;;;5020415;28;20049;-85
2023/01/22 01:48:10;;;;;;;22.27;11.85;;;0.40;99.90;;;;;;5038795;28;20165;-84
2023/01/22 01:50:39;;;;;;;21.98;12.20;;;0.40;99.90;;;;;;5012571;28;20056;-84
2023/01/22 01:53:05;;;;;;;24.25;11.95;;;0.40;99.90;;;;;;5032321;28;20404;-85
2023/01/22 01:55:34;;;;;;;23.65;11.07;;;0.40;99.90;;;;;;5014830;28;20040;-85
2023/01/22 01:58:07;;;;;;;25.10;11.65;;;0.50;99.90;;;;;;5016544;28;20029;-84
2023/01/22 02:00:35;;;;;;;22.67;12.18;;;0.50;99.90;;;;;;5018705;28;20080;-85
2023/01/22 02:03:01;;;;;;;24.40;12.27;;;0.50;99.90;;;;;;5035474;28;20393;-85
2023/01/22 02:05:32;;;;;;;27.85;13.20;;;0.50;99.90;;;;;;5015394;28;20041;-85
2023/01/22 02:07:58;;;;;;;24.75;11.90;;;0.50;99.90;;;;;;5012986;28;20041;-85
2023/01/22 02:10:24;;;;;;;24.83;13.10;;;0.50;99.90;;;;;;5035271;28;20087;-85
2023/01/22 02:12:50;;;;;;;21.33;11.82;;;0.40;99.90;;;;;;5017636;28;20481;-85
2023/01/22 02:15:16;;;;;;;27.60;12.32;;;0.40;99.90;;;;;;5013314;28;20041;-85
2023/01/22 02:17:41;;;;;;;23.73;12.32;;;0.40;99.90;;;;;;5014803;28;20091;-85
2023/01/22 02:20:08;;;;;;;24.83;11.90;;;0.40;99.90;;;;;;5015062;28;20068;-84
2023/01/22 02:22:37;;;;;;;25.08;11.77;;;0.40;99.90;;;;;;5033048;28;20041;-85
2023/01/22 02:25:03;;;;;;;27.13;12.32;;;0.40;99.90;;;;;;5016101;28;20129;-85
2023/01/22 02:27:29;;;;;;;27.02;12.85;;;0.40;99.90;;;;;;5017277;28;20132;-85
2023/01/22 02:29:54;;;;;;;25.60;12.88;;;0.40;99.90;;;;;;5032284;28;20045;-85
2023/01/22 02:32:20;;;;;;;24.95;12.50;;;0.40;99.90;;;;;;5032617;28;20084;-84
2023/01/22 02:34:46;;;;;;;26.23;12.85;;;0.40;99.90;;;;;;5030734;28;20069;-84
2023/01/22 02:37:12;;;;;;;25.85;13.15;;;0.40;99.90;;;;;;5034691;28;20073;-84
2023/01/22 02:39:37;;;;;;;29.23;13.00;;;0.40;99.90;;;;;;5036702;28;20142;-85
2023/01/22 02:42:04;;;;;;;25.60;12.25;;;0.30;99.90;;;;;;5029711;28;20512;-85
2023/01/22 02:44:30;;;;;;;27.00;12.95;;;0.30;99.90;;;;;;5035210;28;20047;-85
2023/01/22 02:46:56;;;;;;;25.70;12.40;;;0.30;99.90;;;;;;5010927;28;20057;-84
2023/01/22 02:49:22;;;;;;;24.20;12.30;;;0.20;99.90;;;;;;5012634;28;20049;-85
2023/01/22 02:51:47;;;;;;;23.25;12.50;;;0.20;99.90;;;;;;5019263;28;20091;-84
2023/01/22 02:54:13;;;;;;;26.55;12.32;;;0.20;99.90;;;;;;5018331;28;20506;-85
2023/01/22 02:56:38;;;;;;;22.35;12.75;;;0.10;99.90;;;;;;5013954;28;20505;-85
2023/01/22 02:59:05;;;;;;;25.13;12.38;;;0.10;99.90;;;;;;5019686;28;20080;-85
2023/01/22 03:01:31;;;;;;;27.42;12.25;;;0.10;99.90;;;;;;5049650;28;20753;-85
2023/01/22 03:04:09;;;;;;;21.08;10.93;;;0.20;99.90;;;;;;5036087;28;20049;-84
2023/01/22 03:06:37;;;;;;;25.52;11.68;;;0.20;99.90;;;;;;5031135;28;20050;-85
2023/01/22 03:09:03;;;;;;;25.98;11.63;;;0.20;99.90;;;;;;5013914;28;20041;-85
2023/01/22 03:11:31;;;;;;;23.27;12.32;;;0.20;99.90;;;;;;5018472;28;20528;-85
2023/01/22 03:22:11;;;;;;;21.40;10.85;;;0.20;99.90;;;;;;5029716;28;20045;-85
2023/01/22 03:24:37;;;;;;;24.38;11.10;;;0.20;99.90;;;;;;5016273;28;20119;-85
2023/01/22 03:27:03;;;;;;;21.20;11.73;;;0.20;99.90;;;;;;5023961;28;20053;-85
2023/01/22 03:29:28;;;;;;;20.75;11.25;;;0.10;99.90;;;;;;5033958;28;20048;-84
2023/01/22 03:31:54;;;;;;;21.52;9.85;;;0.00;99.90;;;;;;5018295;28;20044;-85
2023/01/22 03:34:22;;;;;;;20.95;10.27;;;0.00;99.90;;;;;;5018584;28;20400;-85
2023/01/22 03:36:47;;;;;;;22.88;10.43;;;0.00;99.90;;;;;;5015794;28;20044;-85
2023/01/22 03:39:14;;;;;;;22.25;10.90;;;0.00;99.90;;;;;;5030835;28;20033;-85
2023/01/22 03:41:39;;;;;;;24.20;10.30;;;0.00;99.90;;;;;;5032367;28;20040;-85
2023/01/22 03:44:10;;;;;;;18.50;10.77;;;0.00;99.90;;;;;;5018993;28;20045;-85
2023/01/22 03:46:36;;;;;;;19.02;9.15;;;0.00;99.90;;;;;;5012585;28;20601;-85
2023/01/22 03:49:02;;;;;;;20.48;10.35;;;0.10;99.90;;;;;;5012766;28;20059;-85
2023/01/22 03:51:28;;;;;;;17.42;9.60;;;0.10;99.90;;;;;;5013028;28;20041;-85
2023/01/22 03:53:53;;;;;;;17.42;8.88;;;0.10;99.90;;;;;;5029123;28;20041;-85
2023/01/22 03:56:21;;;;;;;20.08;9.23;;;0.20;99.90;;;;;;5031060;28;20044;-85
2023/01/22 03:58:48;;;;;;;13.82;7.07;;;0.20;99.90;;;;;;5027743;28;20091;-85
2023/01/22 04:01:17;;;;;;;15.43;8.25;;;0.30;99.90;;;;;;5018389;28;20045;-84
2023/01/22 04:03:43;;;;;;;11.65;6.13;;;0.40;99.90;;;;;;5014915;28;20050;-84
2023/01/22 04:06:10;;;;;;;16.95;8.00;;;0.40;99.90;;;;;;5015195;28;20152;-84
2023/01/22 04:08:37;;;;;;;7.13;4.90;;;0.50;99.90;;;;;;5021622;28;20040;-84
2023/01/22 04:11:04;;;;;;;10.43;5.63;;;0.60;99.90;;;;;;5013424;28;20037;-85
2023/01/22 04:13:31;;;;;;;11.93;7.10;;;0.70;99.90;;;;;;5021722;28;20056;-85
2023/01/22 04:15:56;;;;;;;14.63;6.47;;;0.80;99.90;;;;;;5015129;28;20037;-85
2023/01/22 04:18:22;;;;;;;11.02;6.20;;;0.80;99.90;;;;;;5032997;28;20045;-85
2023/01/22 04:20:49;;;;;;;11.93;7.00;;;0.80;99.90;;;;;;5016185;28;20519;-85
2023/01/22 04:23:15;;;;;;;13.35;6.43;;;0.80;99.90;;;;;;5029654;28;20392;-85
2023/01/22 04:25:41;;;;;;;12.30;6.53;;;0.80;99.90;;;;;;5030966;28;20148;-85
2023/01/22 04:28:09;;;;;;;11.93;6.38;;;0.80;99.90;;;;;;5013481;28;20041;-85
2023/01/22 04:30:35;;;;;;;11.02;6.53;;;0.90;99.90;;;;;;5031597;28;20049;-85
2023/01/22 04:33:01;;;;;;;10.73;5.43;;;0.90;99.90;;;;;;5029594;28;20106;-85
2023/01/22 04:35:27;;;;;;;10.25;6.20;;;0.90;99.90;;;;;;5017302;28;20044;-84
2023/01/22 04:37:53;;;;;;;13.43;6.35;;;0.90;99.90;;;;;;5027909;28;20389;-85
2023/01/22 04:40:19;;;;;;;10.85;6.35;;;0.90;99.90;;;;;;5035967;28;20033;-85
2023/01/22 04:42:45;;;;;;;10.90;6.10;;;1.00;99.90;;;;;;5024528;28;20037;-84
2023/01/22 04:45:11;;;;;;;8.75;5.53;;;1.00;99.90;;;;;;5017061;28;20545;-85
2023/01/22 04:47:45;;;;;;;11.98;6.10;;;1.00;99.90;;;;;;5016438;28;20136;-85
2023/01/22 04:50:19;;;;;;;11.20;5.93;;;1.10;99.90;;;;;;5017847;28;20096;-85
2023/01/22 04:52:45;;;;;;;11.73;6.40;;;1.10;99.90;;;;;;5021178;28;20103;-84
2023/01/22 04:55:11;;;;;;;11.15;6.10;;;1.10;99.90;;;;;;5021648;28;20045;-85
2023/01/22 04:57:36;;;;;;;10.52;6.05;;;1.10;99.90;;;;;;5019020;28;20045;-85
2023/01/22 05:00:04;;;;;;;9.18;4.65;;;1.10;99.90;;;;;;5016544;28;20037;-85
2023/01/22 05:02:29;;;;;;;9.15;5.65;;;1.20;99.90;;;;;;5020667;28;20044;-85
2023/01/22 05:04:55;;;;;;;12.32;6.57;;;1.20;99.90;;;;;;5031468;28;20041;-85
2023/01/22 05:07:20;;;;;;;13.23;6.15;;;1.30;99.90;;;;;;5015100;28;20041;-84
2023/01/22 05:09:46;;;;;;;10.73;6.05;;;1.30;99.90;;;;;;5022068;28;20041;-85
2023/01/22 05:12:11;;;;;;;6.05;3.85;;;1.30;99.90;;;;;;5021443;28;20049;-85
2023/01/22 05:14:37;;;;;;;11.00;5.65;;;1.40;99.90;;;;;;5017968;28;20496;-84
2023/01/22 05:17:03;;;;;;;7.80;4.05;;;1.40;99.90;;;;;;5017278;28;20073;-84
2023/01/22 05:19:28;;;;;;;11.50;4.60;;;1.40;99.90;;;;;;5033856;28;20033;-84
2023/01/22 05:21:54;;;;;;;9.32;5.72;;;1.50;99.90;;;;;;5013984;28;20387;-85
2023/01/22 05:24:19;;;;;;;8.43;4.65;;;1.50;99.90;;;;;;5033658;28;20514;-85
2023/01/22 05:26:45;;;;;;;12.02;5.95;;;1.50;99.90;;;;;;5016210;28;20046;-85
2023/01/22 05:29:11;;;;;;;9.73;4.80;;;1.50;99.90;;;;;;5032625;28;20460;-85
2023/01/22 05:31:36;;;;;;;8.60;5.28;;;1.50;99.90;;;;;;5023412;28;20492;-84
2023/01/22 05:34:03;;;;;;;10.88;6.05;;;1.50;99.90;;;;;;5023860;28;20124;-85
2023/01/22 05:36:29;;;;;;;9.77;6.28;;;1.50;99.90;;;;;;5033322;28;20132;-84
2023/01/22 05:38:54;;;;;;;8.70;5.13;;;1.60;99.90;;;;;;5035142;28;20120;-84
2023/01/22 05:41:20;;;;;;;10.75;5.85;;;1.50;99.90;;;;;;5017368;28;20430;-84
2023/01/22 05:43:46;;;;;;;11.52;5.93;;;1.50;99.90;;;;;;5027581;28;20571;-84
2023/01/22 05:46:12;;;;;;;6.85;4.30;;;1.50;99.90;;;;;;5042292;28;20060;-84
2023/01/22 05:48:37;;;;;;;8.38;3.88;;;1.50;99.90;;;;;;5017229;28;20472;-84
2023/01/22 05:51:05;;;;;;;9.18;5.47;;;1.60;99.90;;;;;;5015159;28;20543;-85
2023/01/22 05:53:31;;;;;;;9.65;6.03;;;1.60;99.90;;;;;;5037947;28;20054;-84
2023/01/22 05:56:02;;;;;;;11.93;6.43;;;1.60;99.90;;;;;;5015121;28;20043;-84
2023/01/22 05:58:28;;;;;;;9.88;6.30;;;1.60;99.90;;;;;;5019468;28;20048;-84
2023/01/22 06:00:54;;;;;;;13.00;6.03;;;1.60;99.90;;;;;;5016192;28;20048;-84
2023/01/22 06:03:20;;;;;;;9.75;6.00;;;1.60;99.90;;;;;;5018271;28;20056;-84
2023/01/22 06:05:45;;;;;;;10.00;5.57;;;1.60;99.90;;;;;;5019020;28;20090;-84
2023/01/22 06:08:11;;;;;;;6.72;3.75;;;1.60;99.90;;;;;;5018407;28;21072;-84
2023/01/22 06:10:37;;;;;;;7.68;4.75;;;1.60;99.90;;;;;;5013200;28;20064;-84
2023/01/22 06:13:02;;;;;;;6.90;4.18;;;1.70;99.90;;;;;;5016178;28;20515;-84
2023/01/22 06:15:28;;;;;;;8.35;5.40;;;1.70;99.90;;;;;;5013910;28;20045;-85
2023/01/22 06:17:58;;;;;;;8.98;4.60;;;1.70;99.90;;;;;;5017992;28;20348;-84
2023/01/22 06:20:23;;;;;;;14.35;6.05;;;1.70;99.90;;;;;;5037179;28;20072;-84
2023/01/22 06:22:50;;;;;;;9.90;4.88;;;1.70;99.90;;;;;;5019390;28;20130;-83
2023/01/22 06:25:16;;;;;;;12.57;6.30;;;1.70;99.90;;;;;;5018364;28;20378;-84
2023/01/22 06:27:41;;;;;;;9.98;5.60;;;1.60;99.90;;;;;;5018860;28;20110;-84
2023/01/22 06:30:08;;;;;;;11.77;6.47;;;1.60;99.90;;;;;;5016321;28;20049;-84
2023/01/22 06:32:33;;;;;;;10.15;5.72;;;1.60;99.90;;;;;;5019822;28;20029;-84
2023/01/22 06:34:59;;;;;;;7.70;3.60;;;1.60;99.90;;;;;;5032489;28;20041;-82
2023/01/22 06:37:25;;;;;;;8.25;4.68;;;1.60;99.90;;;;;;5016449;28;20524;-84
2023/01/22 06:39:50;;;;;;;8.95;5.82;;;1.70;99.90;;;;;;5018155;28;20072;-84
2023/01/22 06:42:16;;;;;;;6.38;3.80;;;1.70;99.90;;;;;;5014088;28;20033;-84
2023/01/22 06:44:41;;;;;;;11.52;5.63;;;1.60;99.90;;;;;;5026176;28;20461;-84
2023/01/22 06:47:07;;;;;;;6.55;4.43;;;1.60;99.90;;;;;;5016413;28;20049;-84
2023/01/22 06:49:33;;;;;;;11.43;5.57;;;1.60;99.90;;;;;;5015111;28;20061;-84
2023/01/22 06:51:58;;;;;;;8.95;5.10;;;1.60;99.90;;;;;;5016725;28;20041;-84
2023/01/22 06:54:24;;;;;;;7.07;4.82;;;1.60;99.90;;;;;;5016685;28;20098;-84
2023/01/22 06:56:49;;;;;;;6.55;4.65;;;1.60;99.90;;;;;;5023063;28;20045;-84
2023/01/22 06:59:15;;;;;;;7.57;5.05;;;1.60;99.90;;;;;;5020318;28;20040;-84
2023/01/22 07:01:41;;;;;;;6.07;3.75;;;1.60;99.90;;;;;;5037655;28;20521;-84
2023/01/22 07:04:06;;;;;;;7.55;4.47;;;1.60;99.90;;;;;;5016767;28;20084;-84
2023/01/22 07:06:32;;;;;;;9.40;5.18;;;1.50;99.90;;;;;;5015486;28;20033;-84
2023/01/22 07:08:58;;;;;;;6.15;3.97;;;1.50;99.90;;;;;;5031555;28;20473;-83
2023/01/22 07:11:23;;;;;;;4.97;3.50;;;1.60;99.90;;;;;;5018584;28;20037;-84
2023/01/22 07:13:49;;;;;;;6.60;3.63;;;1.60;99.90;;;;;;5022828;28;20504;-84
2023/01/22 07:16:14;;;;;;;10.38;5.45;;;1.60;99.90;;;;;;5021541;28;20037;-84
2023/01/22 07:18:40;;;;;;;11.13;5.30;;;1.60;99.90;;;;;;5014029;28;20037;-84
2023/01/22 07:21:06;;;;;;;6.55;3.90;;;1.60;99.90;;;;;;5013466;28;20048;-83
2023/01/22 07:23:31;;;;;;;5.90;3.92;;;1.60;99.90;;;;;;5039455;28;20124;-84
2023/01/22 07:25:57;;;;;;;10.13;5.07;;;1.60;99.90;;;;;;5016789;28;20037;-84
2023/01/22 07:28:23;;;;;;;8.50;5.50;;;1.50;99.90;;;;;;5015609;28;20364;-84
2023/01/22 07:30:49;;;;;;;12.65;6.13;;;1.50;99.90;;;;;;5036593;28;20066;-83
2023/01/22 07:33:15;;;;;;;7.43;4.32;;;1.50;99.90;;;;;;5016357;28;20055;-83
2023/01/22 07:35:41;;;;;;;9.70;5.95;;;1.50;99.90;;;;;;5016603;28;20045;-84
2023/01/22 07:38:07;;;;;;;11.32;6.70;;;1.50;99.90;;;;;;5030938;28;20496;-84
2023/01/22 07:40:33;;;;;;;8.98;5.82;;;1.50;99.90;;;;;;5027357;28;20385;-83
2023/01/22 07:43:03;;;;;;;11.60;5.50;;;1.40;99.90;;;;;;5024731;28;20370;-84
2023/01/22 07:45:29;;;;;;;16.80;6.82;;;1.50;99.90;;;;;;5019166;28;20544;-83
2023/01/22 07:47:57;;;;;;;12.98;5.95;;;1.50;99.90;;;;;;5012898;28;20062;-84
2023/01/22 07:50:24;;;;;;;7.82;5.15;;;1.40;99.90;;;;;;5014559;28;20049;-83
2023/01/22 07:52:50;;;;;;;8.75;5.60;;;1.40;99.90;;;;;;5033423;28;20049;-83
2023/01/22 07:55:16;;;;;;;11.18;5.53;;;1.40;99.90;;;;;;5019339;28;20076;-84
2023/01/22 07:57:41;;;;;;;8.80;4.68;;;1.40;99.90;;;;;;5042641;28;20041;-85
2023/01/22 08:00:09;;;;;;;11.70;6.68;;;1.40;99.90;;;;;;5016552;28;20064;-84
2023/01/22 08:02:36;;;;;;;8.20;5.35;;;1.30;99.90;;;;;;5019708;28;20539;-84
2023/01/22 08:05:02;;;;;;;11.55;6.88;;;1.30;99.90;;;;;;5018598;28;20072;-84
2023/01/22 08:07:29;;;;;;;14.18;7.20;;;1.30;99.90;;;;;;5013368;28;20469;-83
2023/01/22 08:09:55;;;;;;;10.55;6.47;;;1.20;99.90;;;;;;5028398;28;20052;-83
2023/01/22 08:12:21;;;;;;;13.85;7.60;;;1.20;99.90;;;;;;5016609;28;20040;-84
2023/01/22 08:14:46;;;;;;;8.80;5.00;;;1.20;99.90;;;;;;5028743;28;20044;-84
2023/01/22 08:17:12;;;;;;;12.40;7.47;;;1.20;99.90;;;;;;5016244;28;20069;-84
2023/01/22 08:19:38;;;;;;;13.13;7.38;;;1.20;99.90;;;;;;5020099;28;20516;-84
2023/01/22 08:22:04;;;;;;;13.25;7.85;;;1.20;99.90;;;;;;5016167;28;20082;-84
2023/01/22 08:24:30;;;;;;;9.55;6.22;;;1.20;99.90;;;;;;5042261;28;20067;-84
2023/01/22 08:26:56;;;;;;;7.43;5.00;;;1.20;99.90;;;;;;5034875;28;20128;-83
2023/01/22 08:29:22;;;;;;;6.80;4.68;;;1.20;99.90;;;;;;5018736;28;20124;-83
2023/01/22 08:31:49;;;;;;;10.68;7.47;;;1.20;99.90;;;;;;5020960;28;20041;-84
2023/01/22 08:34:14;;;;;;;12.77;5.60;;;1.20;99.90;;;;;;5015401;28;20437;-84
2023/01/22 08:36:40;;;;;;;9.73;5.93;;;1.20;99.90;;;;;;5032440;28;20063;-83
2023/01/22 08:39:06;;;;;;;14.75;8.25;;;1.20;99.90;;;;;;5015521;28;20535;-84
2023/01/22 08:41:31;;;;;;;5.82;4.50;;;1.20;99.90;;;;;;5042503;28;20036;-83
2023/01/22 08:43:57;;;;;;;13.50;7.38;;;1.20;99.90;;;;;;5018638;28;20049;-84
2023/01/22 08:46:23;;;;;;;14.63;8.75;;;1.20;99.90;;;;;;5022845;28;20125;-84
2023/01/22 08:48:49;;;;;;;8.60;5.72;;;1.20;99.90;;;;;;5021368;28;20063;-83
2023/01/22 08:51:15;;;;;;;11.80;6.45;;;1.20;99.90;;;;;;5018660;28;20080;-84
2023/01/22 08:53:41;;;;;;;12.55;7.80;;;1.20;99.90;;;;;;5018661;28;20041;-84
2023/01/22 08:56:07;;;;;;;8.07;5.18;;;1.20;99.90;;;;;;5022474;28;20468;-84
2023/01/22 08:58:33;;;;;;;6.85;4.55;;;1.20;99.90;;;;;;5039523;28;20139;-83
2023/01/22 09:00:58;;;;;;;12.07;7.13;;;1.20;99.90;;;;;;5034270;28;20228;-84
2023/01/22 09:03:24;;;;;;;12.73;6.78;;;1.30;99.90;;;;;;5020751;28;20112;-83
2023/01/22 09:05:50;;;;;;;10.30;6.00;;;1.30;99.90;;;;;;5017556;28;20041;-84
2023/01/22 09:08:16;;;;;;;10.25;6.25;;;1.20;99.90;;;;;;5017501;28;20493;-84
2023/01/22 09:10:42;;;;;;;8.95;5.25;;;1.20;99.90;;;;;;5018996;28;20612;-83
2023/01/22 09:13:08;;;;;;;13.00;7.78;;;1.20;99.90;;;;;;5035751;28;20037;-84
2023/01/22 09:15:33;;;;;;;12.25;6.72;;;1.20;99.90;;;;;;5033822;28;20064;-84
2023/01/22 09:17:59;;;;;;;6.32;4.80;;;1.20;99.90;;;;;;5040864;28;20064;-83
2023/01/22 09:20:25;;;;;;;13.32;7.63;;;1.20;99.90;;;;;;5032787;28;20041;-84
2023/01/22 09:22:51;;;;;;;11.73;7.43;;;1.20;99.90;;;;;;5024894;28;20037;-83
2023/01/22 09:25:16;;;;;;;8.48;5.35;;;1.20;99.90;;;;;;5024796;28;20040;-83
2023/01/22 09:27:42;;;;;;;9.85;6.32;;;1.20;99.90;;;;;;5017953;28;20041;-83
2023/01/22 09:30:09;;;;;;;8.80;5.60;;;1.20;99.90;;;;;;5013424;28;20041;-84
2023/01/22 09:32:35;;;;;;;12.25;6.72;;;1.20;99.90;;;;;;5021082;28;20118;-83
2023/01/22 09:35:01;;;;;;;9.95;5.38;;;1.30;99.90;;;;;;5042892;28;20041;-84
2023/01/22 09:37:26;;;;;;;12.13;6.43;;;1.30;99.90;;;;;;5032016;28;20136;-83
2023/01/22 09:39:52;;;;;;;9.85;5.95;;;1.40;99.90;;;;;;5034155;28;20038;-83
2023/01/22 09:42:27;;;;;;;10.20;5.28;;;1.40;99.90;;;;;;5015782;28;20069;-84
2023/01/22 09:44:57;;;;;;;10.07;6.07;;;1.30;99.90;;;;;;5029781;28;20048;-84
2023/01/22 09:47:44;;;;;;;9.30;6.10;;;1.40;99.90;;;;;;5025225;28;20416;-83
2023/01/22 09:50:23;;;;;;;11.52;5.82;;;1.40;99.90;;;;;;5023689;28;20116;-82
2023/01/22 09:52:51;;;;;;;9.82;6.07;;;1.50;99.90;;;;;;5035753;28;20048;-83
2023/01/22 09:55:21;;;;;;;11.30;5.88;;;1.50;99.90;;;;;;5035809;28;20095;-83
2023/01/22 09:57:49;;;;;;;10.48;6.53;;;1.60;99.90;;;;;;5017986;28;20132;-83
2023/01/22 10:00:22;;;;;;;11.38;5.90;;;1.60;99.90;;;;;;5020780;28;20052;-83
2023/01/22 10:03:03;;;;;;;14.30;7.18;;;1.60;99.90;;;;;;5032440;28;20084;-83
2023/01/22 10:05:41;;;;;;;9.63;5.07;;;1.50;99.90;;;;;;5033436;28;20527;-83
2023/01/22 10:08:23;;;;;;;9.90;5.72;;;1.60;99.90;;;;;;5034881;28;20052;-83
2023/01/22 10:10:50;;;;;;;12.40;7.18;;;1.50;99.90;;;;;;5033586;28;20045;-83
2023/01/22 10:13:43;;;;;;;9.57;4.30;;;1.60;99.90;;;;;;5032499;28;20041;-83
2023/01/22 10:16:10;;;;;;;13.38;6.78;;;1.60;99.90;;;;;;5013784;28;20053;-83
2023/01/22 10:18:42;;;;;;;8.65;5.15;;;1.60;99.90;;;;;;5016231;28;20063;-83
2023/01/22 10:21:10;;;;;;;13.32;7.00;;;1.70;99.90;;;;;;5020026;28;20048;-83
2023/01/22 10:23:36;;;;;;;6.65;4.07;;;1.70;99.90;;;;;;5034797;28;20127;-83
2023/01/22 10:26:17;;;;;;;11.55;6.75;;;1.70;99.90;;;;;;5033419;28;20579;-83
2023/01/22 10:28:49;;;;;;;11.40;6.07;;;1.70;99.90;;;;;;5036931;28;20048;-83
2023/01/22 10:31:28;;;;;;;11.00;7.18;;;1.80;99.90;;;;;;5053255;28;20037;-82
2023/01/22 10:33:56;;;;;;;14.73;7.13;;;1.80;99.90;;;;;;5017209;28;20041;-82
2023/01/22 10:36:22;;;;;;;12.52;6.32;;;1.90;99.90;;;;;;5036370;28;20044;-82
2023/01/22 10:38:47;;;;;;;11.98;6.55;;;2.00;99.90;;;;;;5040864;28;20248;-82
2023/01/22 10:41:17;;;;;;;12.75;6.45;;;2.00;99.90;;;;;;5018175;28;20044;-83
2023/01/22 10:43:43;;;;;;;11.07;6.10;;;2.10;99.90;;;;;;5030889;28;20047;-82
2023/01/22 10:46:23;;;;;;;9.23;5.45;;;2.10;99.90;;;;;;5034807;28;20540;-82
2023/01/22 10:49:04;;;;;;;10.05;5.97;;;2.20;99.90;;;;;;5036912;28;20807;-82
2023/01/22 10:51:38;;;;;;;10.13;6.38;;;2.20;99.90;;;;;;5017911;28;20041;-82
2023/01/22 10:54:17;;;;;;;11.50;6.88;;;2.30;99.90;;;;;;5018655;28;20128;-82
2023/01/22 10:56:43;;;;;;;11.30;6.57;;;2.30;99.90;;;;;;5019364;28;20120;-83
2023/01/22 10:59:27;;;;;;;10.68;7.03;;;2.40;99.90;;;;;;5033425;28;20111;-82
2023/01/22 11:02:01;;;;;;;9.10;4.40;;;2.50;99.90;;;;;;5033218;28;20530;-82
2023/01/22 11:04:30;;;;;;;10.32;6.78;;;2.50;99.90;;;;;;5034326;28;20127;-83
2023/01/22 11:07:15;;;;;;;10.57;7.18;;;2.50;99.90;;;;;;5033801;28;20072;-82
2023/01/22 11:09:58;;;;;;;10.20;6.25;;;2.60;99.90;;;;;;5034513;28;20040;-82
2023/01/22 11:12:48;;;;;;;13.02;6.82;;;2.70;99.90;;;;;;5017811;28;20194;-82
2023/01/22 11:15:22;;;;;;;11.13;7.20;;;2.70;99.90;;;;;;5033611;28;20595;-82
2023/01/22 11:17:55;;;;;;;11.52;6.28;;;2.80;99.90;;;;;;5034368;28;20033;-83
2023/01/22 11:20:36;;;;;;;12.02;6.40;;;2.80;99.90;;;;;;5017252;28;20041;-82
2023/01/22 11:23:08;;;;;;;12.43;7.50;;;2.70;99.90;;;;;;5038013;28;20045;-82
2023/01/22 11:26:19;;;;;;;14.10;7.35;;;2.80;99.90;;;;;;5016410;28;20072;-82
2023/01/22 11:28:57;;;;;;;10.52;7.38;;;2.90;99.90;;;;;;5005146;28;20151;-82
2023/01/22 11:32:04;;;;;;;9.52;5.22;;;2.90;99.90;;;;;;5031785;28;20488;-82
2023/01/22 11:34:44;;;;;;;13.80;6.80;;;2.90;99.90;;;;;;5005551;28;20049;-82
2023/01/22 11:37:17;;;;;;;13.40;7.75;;;2.90;99.90;;;;;;5029119;28;20041;-82
2023/01/22 11:39:52;;;;;;;10.82;6.15;;;2.90;99.90;;;;;;5016262;28;20564;-82
2023/01/22 11:42:23;;;;;;;11.32;7.43;;;3.00;99.90;;;;;;5020048;28;20128;-82
2023/01/22 11:45:04;;;;;;;12.75;7.20;;;3.00;99.90;;;;;;5019812;28;20037;-82
2023/01/22 11:47:48;;;;;;;12.45;7.78;;;3.10;99.90;;;;;;5034501;28;20064;-82
2023/01/22 11:50:33;;;;;;;10.98;6.20;;;3.10;99.90;;;;;;5032868;28;20046;-82
2023/01/22 11:53:19;;;;;;;11.13;6.72;;;3.20;99.90;;;;;;5036338;28;20064;-82
2023/01/22 11:56:09;;;;;;;10.23;6.45;;;3.10;99.90;;;;;;5022916;28;20445;-82
2023/01/22 11:58:52;;;;;;;9.35;5.97;;;3.10;99.90;;;;;;5033091;28;20040;-82
2023/01/22 12:01:53;;;;;;;11.57;7.32;;;3.10;99.90;;;;;;5031845;28;20368;-82
2023/01/22 12:04:38;;;;;;;11.10;7.20;;;3.20;99.90;;;;;;5018089;28;20049;-81
2023/01/22 12:07:06;;;;;;;12.25;7.28;;;3.20;99.90;;;;;;5021845;28;20473;-81
2023/01/22 12:09:44;;;;;;;13.93;7.03;;;3.30;99.90;;;;;;5020660;28;20041;-82
2023/01/22 12:12:57;;;;;;;9.20;6.00;;;3.30;99.90;;;;;;5018476;28;20044;-82
2023/01/22 12:15:42;;;;;;;11.98;6.70;;;3.30;99.90;;;;;;5021242;28;20057;-81
2023/01/22 12:18:46;;;;;;;11.95;7.20;;;3.40;99.90;;;;;;5018367;28;20053;-82
2023/01/22 12:21:30;;;;;;;11.60;6.90;;;3.40;99.90;;;;;;5017495;28;20518;-82
2023/01/22 12:24:04;;;;;;;12.32;7.43;;;3.40;99.90;;;;;;5017085;28;20060;-82
2023/01/22 12:26:33;;;;;;;11.80;6.95;;;3.40;99.90;;;;;;5043626;28;20040;-82
2023/01/22 12:29:03;;;;;;;11.85;5.78;;;3.40;99.90;;;;;;5015973;28;20397;-82
2023/01/22 12:31:34;;;;;;;12.40;5.63;;;3.40;99.90;;;;;;5037512;28;20044;-81
2023/01/22 12:34:03;;;;;;;13.88;6.85;;;3.40;99.90;;;;;;5019740;28;20128;-82
2023/01/22 12:36:31;;;;;;;14.70;6.80;;;3.30;99.90;;;;;;5025108;28;20036;-81
2023/01/22 12:39:02;;;;;;;11.93;7.03;;;3.30;99.90;;;;;;5018047;28;20045;-82
2023/01/22 12:41:47;;;;;;;12.80;6.45;;;3.30;99.90;;;;;;5035160;28;20048;-82
2023/01/22 12:44:18;;;;;;;10.65;5.88;;;3.30;99.90;;;;;;5039050;28;20099;-82
2023/01/22 12:47:04;;;;;;;13.98;6.45;;;3.40;99.90;;;;;;5014071;28;20099;-82
2023/01/22 12:49:29;;;;;;;11.50;6.28;;;3.40;99.90;;;;;;5016104;28;20053;-82
2023/01/22 12:51:58;;;;;;;11.73;6.40;;;3.40;99.90;;;;;;5019907;28;20548;-81
2023/01/22 12:54:34;;;;;;;13.32;6.15;;;3.40;99.90;;;;;;5032342;28;20041;-81
2023/01/22 12:57:16;;;;;;;12.25;5.93;;;3.40;99.90;;;;;;5032797;28;20045;-81
2023/01/22 12:59:46;;;;;;;11.15;6.82;;;3.40;99.90;;;;;;5022675;28;20033;-82
2023/01/22 13:02:29;;;;;;;11.23;6.28;;;3.40;99.90;;;;;;5021354;28;20029;-82